Time,TemperatureF,DewpointF,PressureIn,WindDirection,WindDirectionDegrees,WindSpeedMPH,WindSpeedGustMPH,Humidity,HourlyPrecipIn,Conditions,Clouds,dailyrainin,SoftwareType,DateUTC
2013-02-20 00:19:00,45.2,43.0,29.75,West,280,1.0,3.0,91,0.00,,,0.39,weatherlink.com 1.10,2013-02-20 08:19:00,
2013-02-20 00:34:00,45.2,43.0,29.76,WNW,300,0.0,2.0,90,0.00,,,0.39,weatherlink.com 1.10,2013-02-20 08:34:00,
2013-02-20 00:49:00,45.0,43.0,29.76,West,281,0.0,0.0,91,0.00,,,0.39,weatherlink.com 1.10,2013-02-20 08:49:00,
2013-02-20 01:04:00,44.9,43.0,29.76,WNW,283,0.0,1.0,91,0.00,,,0.39,weatherlink.com 1.10,2013-02-20 09:04:00,
2013-02-20 01:19:00,44.9,42.0,29.75,WSW,240,0.0,1.0,89,0.00,,,0.39,weatherlink.com 1.10,2013-02-20 09:19:00,
2013-02-20 01:34:00,44.8,41.0,29.75,WSW,250,0.0,3.0,87,0.00,,,0.39,weatherlink.com 1.10,2013-02-20 09:34:00,
2013-02-20 01:49:00,44.7,40.0,29.75,WSW,255,0.0,1.0,83,0.00,,,0.39,weatherlink.com 1.10,2013-02-20 09:49:00,
2013-02-20 02:04:00,44.4,40.0,29.75,West,266,0.0,1.0,83,0.00,,,0.39,weatherlink.com 1.10,2013-02-20 10:04:00,
2013-02-20 02:19:00,44.2,39.0,29.75,West,278,0.0,2.0,82,0.00,,,0.39,weatherlink.com 1.10,2013-02-20 10:19:00,
2013-02-20 02:34:00,44.2,40.0,29.74,NW,318,0.0,1.0,84,0.00,,,0.39,weatherlink.com 1.10,2013-02-20 10:34:00,
2013-02-20 02:49:00,44.0,39.0,29.74,West,277,0.0,3.0,81,0.00,,,0.39,weatherlink.com 1.10,2013-02-20 10:49:00,
2013-02-20 03:04:00,44.1,38.0,29.74,WSW,247,1.0,2.0,79,0.00,,,0.39,weatherlink.com 1.10,2013-02-20 11:04:00,
2013-02-20 03:19:00,44.2,37.0,29.74,SW,232,0.0,2.0,77,0.00,,,0.39,weatherlink.com 1.10,2013-02-20 11:19:00,
2013-02-20 03:34:00,44.2,36.0,29.74,WNW,289,1.0,3.0,74,0.00,,,0.39,weatherlink.com 1.10,2013-02-20 11:34:00,
2013-02-20 03:49:00,44.0,37.0,29.74,WNW,298,0.0,2.0,76,0.00,,,0.39,weatherlink.com 1.10,2013-02-20 11:49:00,
2013-02-20 04:04:00,43.6,38.0,29.75,WSW,242,0.0,1.0,79,0.00,,,0.39,weatherlink.com 1.10,2013-02-20 12:04:00,
2013-02-20 04:19:00,43.5,37.0,29.75,WSW,243,0.0,1.0,79,0.00,,,0.39,weatherlink.com 1.10,2013-02-20 12:19:00,
2013-02-20 04:34:00,42.5,38.0,29.75,WSW,243,0.0,0.0,83,0.00,,,0.39,weatherlink.com 1.10,2013-02-20 12:34:00,
2013-02-20 04:49:00,41.5,37.0,29.75,WSW,243,0.0,0.0,85,0.00,,,0.00,weatherlink.com 1.10,2013-02-20 12:49:00,
2013-02-20 05:04:00,40.9,37.0,29.76,WSW,243,0.0,0.0,86,0.00,,,0.00,weatherlink.com 1.10,2013-02-20 13:04:00,
2013-02-20 05:19:00,40.1,37.0,29.76,WSW,243,0.0,0.0,88,0.00,,,0.00,weatherlink.com 1.10,2013-02-20 13:19:00,
2013-02-20 05:34:00,39.3,36.0,29.77,WSW,242,0.0,0.0,89,0.00,,,0.00,weatherlink.com 1.10,2013-02-20 13:34:00,
2013-02-20 05:50:00,38.5,36.0,29.77,WSW,243,0.0,0.0,89,0.00,,,0.00,weatherlink.com 1.10,2013-02-20 13:50:00,
2013-02-20 06:05:00,37.9,36.0,29.77,WSW,243,0.0,0.0,91,0.00,,,0.00,weatherlink.com 1.10,2013-02-20 14:05:00,
2013-02-20 06:19:00,37.4,35.0,29.77,WSW,242,0.0,0.0,92,0.00,,,0.00,weatherlink.com 1.10,2013-02-20 14:19:00,
2013-02-20 06:35:00,37.3,36.0,29.78,WSW,242,0.0,0.0,93,0.00,,,0.00,weatherlink.com 1.10,2013-02-20 14:35:00,
2013-02-20 06:50:00,37.2,35.0,29.79,WSW,242,0.0,0.0,93,0.00,,,0.00,weatherlink.com 1.10,2013-02-20 14:50:00,
2013-02-20 07:05:00,37.5,36.0,29.80,WSW,243,0.0,0.0,94,0.00,,,0.00,weatherlink.com 1.10,2013-02-20 15:05:00,
2013-02-20 07:20:00,39.2,37.0,29.80,WSW,242,0.0,1.0,91,0.00,,,0.00,weatherlink.com 1.10,2013-02-20 15:20:00,
2013-02-20 07:35:00,42.7,35.0,29.81,WSW,241,0.0,0.0,74,0.00,,,0.00,weatherlink.com 1.10,2013-02-20 15:35:00,
2013-02-20 07:50:00,43.3,34.0,29.82,NNW,346,0.0,1.0,70,0.00,,,0.00,weatherlink.com 1.10,2013-02-20 15:50:00,
2013-02-20 08:05:00,43.7,34.0,29.82,North,352,0.0,1.0,70,0.00,,,0.00,weatherlink.com 1.10,2013-02-20 16:05:00,
2013-02-20 08:20:00,46.0,36.0,29.83,WSW,241,1.0,1.0,67,0.00,,,0.00,weatherlink.com 1.10,2013-02-20 16:20:00,
2013-02-20 08:50:00,47.7,34.0,29.84,West,263,1.0,2.0,60,0.00,,,0.00,weatherlink.com 1.10,2013-02-20 16:50:00,
2013-02-20 09:05:00,48.6,35.0,29.85,NW,319,0.0,3.0,59,0.00,,,0.00,weatherlink.com 1.10,2013-02-20 17:05:00,
2013-02-20 09:36:00,50.9,36.0,29.86,SW,233,0.0,2.0,58,0.00,,,0.00,weatherlink.com 1.10,2013-02-20 17:36:00,
2013-02-20 09:50:00,51.7,34.0,29.86,South,171,0.0,3.0,52,0.00,,,0.00,weatherlink.com 1.10,2013-02-20 17:50:00,
2013-02-20 10:05:00,52.7,32.0,29.87,WNW,298,1.0,2.0,46,0.00,,,0.00,weatherlink.com 1.10,2013-02-20 18:05:00,
2013-02-20 10:20:00,52.8,32.0,29.87,North,352,0.0,4.0,46,0.00,,,0.00,weatherlink.com 1.10,2013-02-20 18:20:00,
2013-02-20 10:35:00,54.0,34.0,29.87,West,276,0.0,2.0,48,0.00,,,0.00,weatherlink.com 1.10,2013-02-20 18:35:00,
2013-02-20 10:50:00,54.9,31.0,29.87,North,355,0.0,2.0,41,0.00,,,0.00,weatherlink.com 1.10,2013-02-20 18:50:00,
2013-02-20 11:05:00,55.2,31.0,29.88,NNW,335,0.0,2.0,40,0.00,,,0.00,weatherlink.com 1.10,2013-02-20 19:05:00,
2013-02-20 11:21:00,55.5,30.0,29.89,ENE,63,0.0,2.0,38,0.00,,,0.00,weatherlink.com 1.10,2013-02-20 19:21:00,
2013-02-20 11:35:00,56.3,33.0,29.88,WSW,239,0.0,1.0,41,0.00,,,0.00,weatherlink.com 1.10,2013-02-20 19:35:00,
2013-02-20 11:51:00,57.5,33.0,29.89,West,276,0.0,2.0,40,0.00,,,0.00,weatherlink.com 1.10,2013-02-20 19:51:00,
2013-02-20 12:21:00,57.4,35.0,29.88,SSE,156,1.0,3.0,43,0.00,,,0.00,weatherlink.com 1.10,2013-02-20 20:21:00,
2013-02-20 12:36:00,57.1,36.0,29.89,SSW,202,1.0,3.0,46,0.00,,,0.00,weatherlink.com 1.10,2013-02-20 20:36:00,
2013-02-20 12:51:00,57.3,36.0,29.89,SSE,165,1.0,2.0,45,0.00,,,0.00,weatherlink.com 1.10,2013-02-20 20:51:00,
2013-02-20 13:06:00,57.6,36.0,29.88,West,267,1.0,3.0,44,0.00,,,0.00,weatherlink.com 1.10,2013-02-20 21:06:00,
2013-02-20 13:21:00,57.6,35.0,29.88,SW,219,0.0,2.0,43,0.00,,,0.00,weatherlink.com 1.10,2013-02-20 21:21:00,
2013-02-20 13:36:00,57.7,35.0,29.88,North,5,0.0,4.0,42,0.00,,,0.00,weatherlink.com 1.10,2013-02-20 21:36:00,
2013-02-20 13:51:00,57.2,35.0,29.87,West,281,0.0,1.0,44,0.00,,,0.00,weatherlink.com 1.10,2013-02-20 21:51:00,
2013-02-20 14:06:00,58.1,35.0,29.88,SW,228,0.0,4.0,42,0.00,,,0.00,weatherlink.com 1.10,2013-02-20 22:06:00,
2013-02-20 14:21:00,58.0,37.0,29.88,South,174,2.0,7.0,45,0.00,,,0.00,weatherlink.com 1.10,2013-02-20 22:21:00,
2013-02-20 14:36:00,57.1,37.0,29.88,SSE,158,0.0,4.0,47,0.00,,,0.00,weatherlink.com 1.10,2013-02-20 22:36:00,
2013-02-20 14:51:00,56.7,38.0,29.88,SW,217,2.0,9.0,49,0.00,,,0.00,weatherlink.com 1.10,2013-02-20 22:51:00,
2013-02-20 15:06:00,55.9,37.0,29.89,SSW,195,1.0,11.0,50,0.00,,,0.00,weatherlink.com 1.10,2013-02-20 23:06:00,
2013-02-20 15:21:00,56.2,37.0,29.90,ENE,61,1.0,5.0,49,0.00,,,0.00,weatherlink.com 1.10,2013-02-20 23:21:00,
2013-02-20 15:36:00,55.7,35.0,29.90,West,259,0.0,3.0,46,0.00,,,0.00,weatherlink.com 1.10,2013-02-20 23:36:00,
2013-02-20 15:51:00,55.5,35.0,29.91,NE,41,0.0,2.0,46,0.00,,,0.00,weatherlink.com 1.10,2013-02-20 23:51:00,
2013-02-20 16:06:00,54.8,36.0,29.92,West,281,0.0,2.0,49,0.00,,,0.00,weatherlink.com 1.10,2013-02-21 00:06:00,
2013-02-20 16:21:00,54.3,39.0,29.92,West,280,1.0,3.0,56,0.00,,,0.00,weatherlink.com 1.10,2013-02-21 00:21:00,
2013-02-20 16:36:00,53.9,38.0,29.92,SW,221,2.0,3.0,56,0.00,,,0.00,weatherlink.com 1.10,2013-02-21 00:36:00,
2013-02-20 16:51:00,53.4,39.0,29.93,West,269,0.0,1.0,58,0.00,,,0.00,weatherlink.com 1.10,2013-02-21 00:51:00,
2013-02-20 17:06:00,53.2,39.0,29.93,South,170,2.0,4.0,58,0.00,,,0.00,weatherlink.com 1.10,2013-02-21 01:06:00,
2013-02-20 17:21:00,52.4,40.0,29.95,SSW,200,0.0,3.0,63,0.00,,,0.00,weatherlink.com 1.10,2013-02-21 01:21:00,
2013-02-20 17:36:00,51.9,41.0,29.96,SE,129,0.0,5.0,66,0.00,,,0.00,weatherlink.com 1.10,2013-02-21 01:36:00,
2013-02-20 17:51:00,51.2,41.0,29.96,SE,143,0.0,0.0,67,0.00,,,0.00,weatherlink.com 1.10,2013-02-21 01:51:00,
2013-02-20 18:06:00,50.5,41.0,29.96,SSE,158,0.0,1.0,70,0.00,,,0.00,weatherlink.com 1.10,2013-02-21 02:06:00,
2013-02-20 18:21:00,49.6,41.0,29.97,SSE,158,0.0,0.0,73,0.00,,,0.00,weatherlink.com 1.10,2013-02-21 02:21:00,
2013-02-20 18:36:00,48.9,41.0,29.97,SSE,158,0.0,0.0,75,0.00,,,0.00,weatherlink.com 1.10,2013-02-21 02:36:00,
2013-02-20 18:51:00,48.1,42.0,29.98,SSE,158,0.0,0.0,78,0.00,,,0.00,weatherlink.com 1.10,2013-02-21 02:51:00,
2013-02-20 19:07:00,47.9,41.0,29.98,SSE,158,0.0,0.0,78,0.00,,,0.00,weatherlink.com 1.10,2013-02-21 03:07:00,
2013-02-20 19:21:00,47.3,41.0,29.98,SSE,158,0.0,0.0,80,0.00,,,0.00,weatherlink.com 1.10,2013-02-21 03:21:00,
2013-02-20 19:37:00,46.8,41.0,29.98,SSE,158,0.0,0.0,81,0.00,,,0.00,weatherlink.com 1.10,2013-02-21 03:37:00,
2013-02-20 19:51:00,46.8,41.0,29.99,SSE,155,0.0,1.0,80,0.00,,,0.00,weatherlink.com 1.10,2013-02-21 03:51:00,
2013-02-20 20:06:00,46.6,41.0,30.00,SSE,155,0.0,0.0,81,0.00,,,0.00,weatherlink.com 1.10,2013-02-21 04:06:00,
2013-02-20 20:21:00,46.8,41.0,30.00,ESE,102,0.0,1.0,80,0.00,,,0.00,weatherlink.com 1.10,2013-02-21 04:21:00,
2013-02-20 20:36:00,47.3,41.0,30.00,NE,44,0.0,1.0,78,0.00,,,0.00,weatherlink.com 1.10,2013-02-21 04:36:00,
2013-02-20 20:52:00,47.3,41.0,30.01,North,357,0.0,1.0,78,0.00,,,0.00,weatherlink.com 1.10,2013-02-21 04:52:00,
2013-02-20 21:06:00,47.2,40.0,30.02,North,6,0.0,1.0,77,0.00,,,0.00,weatherlink.com 1.10,2013-02-21 05:06:00,
2013-02-20 21:22:00,47.3,40.0,30.02,ENE,68,0.0,1.0,77,0.00,,,0.00,weatherlink.com 1.10,2013-02-21 05:22:00,
2013-02-20 21:36:00,47.3,40.0,30.02,North,11,0.0,2.0,77,0.00,,,0.00,weatherlink.com 1.10,2013-02-21 05:36:00,
2013-02-20 21:52:00,47.1,41.0,30.02,NNE,29,0.0,2.0,78,0.00,,,0.00,weatherlink.com 1.10,2013-02-21 05:52:00,
2013-02-20 22:06:00,46.8,40.0,30.02,ENE,64,0.0,1.0,78,0.00,,,0.00,weatherlink.com 1.10,2013-02-21 06:06:00,
2013-02-20 22:22:00,46.2,40.0,30.03,ENE,64,0.0,0.0,80,0.00,,,0.00,weatherlink.com 1.10,2013-02-21 06:22:00,
2013-02-20 22:37:00,45.8,40.0,30.03,ENE,64,0.0,0.0,81,0.00,,,0.00,weatherlink.com 1.10,2013-02-21 06:37:00,
2013-02-20 22:52:00,46.0,41.0,30.02,ENE,64,0.0,0.0,81,0.00,,,0.00,weatherlink.com 1.10,2013-02-21 06:52:00,
2013-02-20 23:07:00,45.8,40.0,30.02,ENE,64,0.0,0.0,81,0.00,,,0.00,weatherlink.com 1.10,2013-02-21 07:07:00,
2013-02-20 23:22:00,46.5,40.0,30.03,NNW,334,1.0,2.0,78,0.00,,,0.00,weatherlink.com 1.10,2013-02-21 07:22:00,
2013-02-20 23:37:00,46.5,40.0,30.04,NNE,18,0.0,1.0,77,0.00,,,0.00,weatherlink.com 1.10,2013-02-21 07:37:00,
2013-02-20 23:52:00,45.9,39.0,30.04,NNE,13,0.0,0.0,78,0.00,,,0.00,weatherlink.com 1.10,2013-02-21 07:52:00,